Hawaii METAR Reports

 

PHOG - Kahului, Hawaii, USA
Distance from station: WNW 8mi, 13km
Updated: Sun, 23-Sep-2018 10:54pm HST
Partly Cloudy
Partly Cloudy
 Wind from calm
Wind: Calm
Temperature: 79°F , 26°C
Dew Point: 73°F , 23°C
Humidity: 84%
Barometer: 29.91 inHg , 1012.9 hPa
Clouds: Partly Cloudy
Visibility: 10 miles , 16 km
Cloud details: Few Clouds 2500 ft
Partly Cloudy 4000 ft
Partly Cloudy 6500 ft
2018/09/24 08:54 PHOG 240854Z 00000KT 10SM FEW025 SCT040 SCT065 26/23 A2991 RMK AO2 SLP133 T02560228 50011
PHJH - Lahaina/West Mau, Hawaii, USA
Distance from station: WNW 24mi, 39km
Updated: Sun, 23-Sep-2018 5:50pm HST
NOT Current
Partly Cloudy
Partly Cloudy
 Wind from ENE
Wind: ENE 14 mph , 22 km/h
Temperature: 81°F , 27°C
Heat Index: 85°F , 29°C
Dew Point: 70°F , 21°C
Humidity: 70%
Barometer: 29.85 inHg , 1010.8 hPa
Clouds: Partly Cloudy
Visibility: 15 miles , 24 km
Cloud details: Few Clouds 2500 ft
Partly Cloudy 5000 ft
2018/09/24 03:50 PHJH 240350Z 06012KT 15SM FEW025 SCT050 27/21 A2985 RMK LAST
 
PHNY - Lanai City Airpo, Hawaii, USA
Distance from station: W 40mi, 65km
Updated: Sun, 23-Sep-2018 10:56pm HST
Overcast
Overcast
 Wind from ESE
Wind: ESE 8 mph , 13 km/h
Temperature: 73°F , 23°C
Dew Point: 70°F , 21°C
Humidity: 89%
Barometer: 29.99 inHg , 1015.6 hPa
Clouds: Overcast
Visibility: 10 miles , 16 km
Cloud details: Overcast 5500 ft
2018/09/24 08:56 PHNY 240856Z AUTO 12007KT 10SM OVC055 23/21 A2999 RMK AO2 SLP132 T02330211 50009
PHMK - Molokai, Hawaii, USA
Distance from station: WNW 55mi, 88km
Updated: Sun, 23-Sep-2018 10:54pm HST
Mostly Cloudy
Mostly Cloudy
 Wind from calm
Wind: Calm
Temperature: 73°F , 23°C
Dew Point: 70°F , 21°C
Humidity: 89%
Barometer: 29.93 inHg , 1013.5 hPa
Clouds: Mostly Cloudy
Visibility: 10 miles , 16 km
Cloud details: Mostly Cloudy 6000 ft
2018/09/24 08:54 PHMK 240854Z AUTO 00000KT 10SM BKN060 23/21 A2993 RMK AO2 SLP136 T02280211 50009 TSNO $
 
PHKO - Kailua/Kona, Hawaii, USA
Distance from station: SSE 79mi, 128km
Updated: Sun, 23-Sep-2018 10:53pm HST
Few Clouds
Few Clouds
 Wind from ESE
Wind: ESE 5 mph , 7 km/h
Temperature: 81°F , 27°C
Heat Index: 85°F , 29°C
Dew Point: 70°F , 21°C
Humidity: 70%
Barometer: 29.90 inHg , 1012.5 hPa
Clouds: Few Clouds
Visibility: 10 miles , 16 km
Cloud details: Few Clouds 6500 ft
2018/09/24 08:53 PHKO 240853Z AUTO 12004KT 10SM FEW065 27/21 A2990 RMK AO2 SLP126 T02670211 51013 TSNO
PHSF - Bradshaw Aaf/Haw, Hawaii, USA
Distance from station: SE 90mi, 145km
Updated: Fri, 21-Sep-2018 2:56pm HST
NOT Current
Partly Cloudy
Partly Cloudy
 Wind from W
Wind: W 8 mph , 13 km/h, Gust: 16 mph , 26 km/h
Temperature: 70°F , 21°C
Dew Point: 59°F , 15°C
Humidity: 69%
Barometer: 30.24 inHg , 1024 hPa
Clouds: Partly Cloudy
Visibility: 10 miles , 16 km
Cloud details: Partly Cloudy 3000 ft
2018/09/22 00:56 PHSF 220056Z 26007G14KT 10SM SCT030 21/15 A3024 RMK AO2A SLP122 WND DATA ESTMD T02110146 $
 
PHNG - Kaneohe Mcas, Hawaii, USA
Distance from station: WNW 102mi, 164km
Updated: Sun, 23-Sep-2018 11:48pm HST
Partly Cloudy
Partly Cloudy
 Wind from ESE
Wind: ESE 8 mph , 13 km/h
Temperature: 79°F , 26°C
Dew Point: 73°F , 23°C
Humidity: 84%
Barometer: 29.88 inHg , 1011.9 hPa
Clouds: Partly Cloudy
Visibility: 10 miles , 16 km
Cloud details: Few Clouds 2000 ft
Partly Cloudy 2800 ft
2018/09/24 09:48 PHNG 240948Z 12007KT 10SM FEW020 SCT028 26/23 A2988 RMK AO2 T02610233 $
PHNL - Honolulu, Hawaii, USA
Distance from station: WNW 108mi, 174km
Updated: Sun, 23-Sep-2018 10:53pm HST
Few Clouds
Few Clouds
 Wind from calm
Wind: Calm
Temperature: 79°F , 26°C
Dew Point: 72°F , 22°C
Humidity: 79%
Barometer: 29.91 inHg , 1012.9 hPa
Clouds: Few Clouds
Visibility: 10 miles , 16 km
Cloud details: Few Clouds 2200 ft
Few Clouds 20000 ft
2018/09/24 08:53 PHNL 240853Z 00000KT 10SM FEW022 FEW200 26/22 A2991 RMK AO2 SLP127 T02560217 50007
 
PHTO - Hilo, Hawaii, USA
Distance from station: SE 114mi, 183km
Updated: Sun, 23-Sep-2018 10:53pm HST
Overcast
Overcast
 Wind from SSW
Wind: SSW 5 mph , 7 km/h
Temperature: 77°F , 25°C
Dew Point: 72°F , 22°C
Humidity: 83%
Barometer: 29.94 inHg , 1013.9 hPa
Clouds: Overcast
Visibility: 10 miles , 16 km
Cloud details: Overcast 4400 ft
2018/09/24 08:53 PHTO 240853Z AUTO 21004KT 10SM OVC044 25/22 A2994 RMK AO2 SLP136 T02500222 50009 PWINO TSNO $
PHJR - Kalaeloa, Hawaii, USA
Distance from station: WNW 117mi, 189km
Updated: Sun, 23-Sep-2018 10:53pm HST
Clear
Clear
 Wind from ENE
Wind: ENE 5 mph , 7 km/h
Temperature: 75°F , 24°C
Dew Point: 70°F , 21°C
Humidity: 83%
Barometer: 29.92 inHg , 1013.2 hPa
Clouds: Clear
Visibility: 10 miles , 16 km
2018/09/24 08:53 PHJR 240853Z AUTO 06004KT 10SM CLR 24/21 A2992 RMK AO2 RAE07 SLP138 P0000 60000 T02390206 50007 TSNO
 
PHHI - Wheeler Afb/Oahu, Hawaii, USA
Distance from station: WNW 120mi, 193km
Updated: Fri, 21-Sep-2018 9:56pm HST
NOT Current
Few Clouds
Few Clouds
 Wind from W
Wind: W 3 mph , 6 km/h
Temperature: 73°F , 23°C
Dew Point: 70°F , 21°C
Humidity: 89%
Barometer: 29.99 inHg , 1015.6 hPa
Clouds: Few Clouds
Visibility: 10 miles , 16 km
Cloud details: Few Clouds 3300 ft
2018/09/22 07:56 PHHI 220756Z 26003KT 10SM FEW033 23/21 A2999 RMK AO2 SLP144 T02290211 $
PHLI - Lihue/Kauai Is, Hawaii, USA
Distance from station: WNW 209mi, 336km
Updated: Sun, 23-Sep-2018 11:27pm HST
Partly Cloudy
Partly Cloudy
 Wind from E
Wind: E 13 mph , 20 km/h
Temperature: 77°F , 25°C
Dew Point: 75°F , 24°C
Humidity: 94%
Barometer: 29.90 inHg , 1012.5 hPa
Clouds: Partly Cloudy
Visibility: 10 miles , 16 km
Cloud details: Few Clouds 1400 ft
Partly Cloudy 6000 ft
2018/09/24 09:27 PHLI 240927Z AUTO 10011KT 10SM FEW014 SCT060 25/24 A2990 RMK AO2 T02500244 TSNO
 
PHBK - Barking Sands/Ka, Hawaii, USA
Distance from station: WNW 237mi, 382km
Updated: Sun, 23-Sep-2018 11:29pm HST
Few Clouds
Few Clouds
 Wind from ESE
Wind: ESE 6 mph , 9 km/h
Temperature: 79°F , 26°C
Dew Point: 72°F , 22°C
Humidity: 79%
Barometer: 29.86 inHg , 1011.2 hPa
Clouds: Few Clouds
Visibility: 10 miles , 16 km
Cloud details: Few Clouds 300 ft
2018/09/24 09:29 PHBK 240929Z AUTO 12005KT 10SM FEW003 26/22 A2986 RMK AO2 T02610217